createdAt,value
2023-08-01T00:01:11.831Z,18.41
2023-08-01T00:03:43.346Z,18.34
2023-08-01T00:06:15.281Z,18.33
2023-08-01T00:08:46.749Z,18.30
2023-08-01T00:11:17.936Z,18.26
2023-08-01T00:13:47.784Z,18.35
2023-08-01T00:16:18.873Z,18.30
2023-08-01T00:18:48.606Z,18.31
2023-08-01T00:21:16.616Z,18.27
2023-08-01T00:23:45.094Z,18.30
2023-08-01T00:26:17.625Z,18.23
2023-08-01T00:28:50.146Z,18.23
2023-08-01T00:31:19.595Z,18.21
2023-08-01T00:33:47.954Z,18.21
2023-08-01T00:36:18.911Z,18.33
2023-08-01T00:38:48.294Z,18.30
2023-08-01T00:41:17.284Z,18.33
2023-08-01T00:43:49.665Z,18.28
2023-08-01T00:46:19.986Z,18.26
2023-08-01T00:48:49.230Z,18.35
2023-08-01T00:51:19.368Z,18.35
2023-08-01T00:53:50.783Z,18.24
2023-08-01T00:56:21.373Z,18.13
2023-08-01T00:58:53.299Z,18.16
2023-08-01T01:01:22.854Z,18.14
2023-08-01T01:03:52.473Z,18.17
2023-08-01T01:06:29.216Z,18.17
2023-08-01T01:09:00.567Z,18.17
2023-08-01T01:11:29.085Z,18.16
2023-08-01T01:13:58.924Z,18.19
2023-08-01T01:16:32.750Z,18.33
2023-08-01T01:19:02.500Z,18.21
2023-08-01T01:21:35.711Z,18.24
2023-08-01T01:24:13.108Z,18.21
2023-08-01T01:26:43.355Z,18.26
2023-08-01T01:29:14.172Z,18.27
2023-08-01T01:31:44.330Z,18.23
2023-08-01T01:34:12.600Z,18.32
2023-08-01T01:36:42.612Z,18.29
2023-08-01T01:39:13.359Z,18.29
2023-08-01T01:41:43.299Z,18.35
2023-08-01T01:44:11.571Z,18.26
2023-08-01T01:46:41.210Z,18.21
2023-08-01T01:49:09.948Z,18.25
2023-08-01T01:51:38.703Z,18.53
2023-08-01T01:54:10.572Z,18.40
2023-08-01T01:56:39.879Z,18.36
2023-08-01T01:59:08.714Z,18.36
2023-08-01T02:01:37.903Z,18.40
2023-08-01T02:04:08.314Z,18.37
2023-08-01T02:06:37.569Z,18.37
2023-08-01T02:09:06.748Z,18.37
2023-08-01T02:11:40.127Z,18.38
2023-08-01T02:14:08.381Z,18.37
2023-08-01T02:16:36.658Z,18.45
2023-08-01T02:19:04.987Z,18.41
2023-08-01T02:21:37.051Z,18.46
2023-08-01T02:24:05.946Z,18.59
2023-08-01T02:26:33.874Z,18.49
2023-08-01T02:29:04.034Z,18.48
2023-08-01T02:31:34.930Z,18.48
2023-08-01T02:34:03.436Z,18.61
2023-08-01T02:36:34.764Z,18.57
2023-08-01T02:39:04.502Z,18.56
2023-08-01T02:41:34.304Z,18.60
2023-08-01T02:44:05.900Z,18.60
2023-08-01T02:46:34.930Z,18.52
2023-08-01T02:49:05.989Z,18.55
2023-08-01T02:51:34.688Z,18.59
2023-08-01T02:54:05.773Z,18.62
2023-08-01T02:56:36.186Z,18.55
2023-08-01T02:59:09.516Z,18.51
2023-08-01T03:01:40.778Z,18.52
2023-08-01T03:04:13.723Z,18.57
2023-08-01T03:06:44.131Z,18.62
2023-08-01T03:09:12.903Z,18.57
2023-08-01T03:11:42.106Z,18.65
2023-08-01T03:14:12.579Z,18.75
2023-08-01T03:16:43.274Z,18.70
2023-08-01T03:19:14.047Z,18.70
2023-08-01T03:21:45.071Z,18.62
2023-08-01T03:24:14.229Z,18.78
2023-08-01T03:26:42.474Z,18.69
2023-08-01T03:29:14.751Z,18.64
2023-08-01T03:31:43.811Z,18.78
2023-08-01T03:34:14.602Z,18.73
2023-08-01T03:36:43.393Z,18.76
2023-08-01T03:39:11.970Z,18.88
2023-08-01T03:41:41.790Z,18.93
2023-08-01T03:44:10.094Z,18.89
2023-08-01T03:46:41.684Z,18.85
2023-08-01T03:49:10.316Z,18.78
2023-08-01T03:51:41.537Z,18.82
2023-08-01T03:54:14.234Z,18.77
2023-08-01T03:56:45.501Z,18.80
2023-08-01T03:59:20.005Z,18.81
2023-08-01T04:01:52.120Z,18.73
2023-08-01T04:04:21.276Z,18.70
2023-08-01T04:06:49.489Z,18.74
2023-08-01T04:09:18.271Z,18.77
2023-08-01T04:11:46.353Z,18.75
2023-08-01T04:14:15.393Z,18.60
2023-08-01T04:16:44.313Z,18.63
2023-08-01T04:19:16.911Z,18.72
2023-08-01T04:21:48.151Z,18.72
2023-08-01T04:24:18.816Z,18.67
2023-08-01T04:26:48.940Z,18.65
2023-08-01T04:29:18.978Z,18.65
2023-08-01T04:31:49.442Z,18.69
2023-08-01T04:34:23.890Z,18.76
2023-08-01T04:36:53.462Z,18.76
2023-08-01T04:39:26.530Z,18.68
2023-08-01T04:41:54.901Z,18.75
2023-08-01T04:44:25.173Z,18.75
2023-08-01T04:46:55.029Z,18.74
2023-08-01T04:49:25.381Z,18.66
2023-08-01T04:51:55.056Z,18.80
2023-08-01T04:54:23.617Z,18.78
2023-08-01T04:56:53.491Z,18.80
2023-08-01T04:59:21.783Z,18.66
2023-08-01T05:01:53.682Z,18.77
2023-08-01T05:04:22.757Z,18.70
2023-08-01T05:06:53.345Z,18.59
2023-08-01T05:09:23.076Z,18.71
2023-08-01T05:11:51.718Z,18.58
2023-08-01T05:14:20.392Z,18.60
2023-08-01T05:16:48.870Z,18.66
2023-08-01T05:19:17.128Z,18.60
2023-08-01T05:21:49.842Z,18.69
2023-08-01T05:24:19.557Z,18.60
2023-08-01T05:26:48.249Z,18.64
2023-08-01T05:29:17.859Z,18.69
2023-08-01T05:31:46.342Z,18.76
2023-08-01T05:34:17.407Z,18.71
2023-08-01T05:36:51.471Z,18.76
2023-08-01T05:39:22.192Z,18.81
2023-08-01T05:41:52.519Z,18.82
2023-08-01T05:44:24.282Z,18.73
2023-08-01T05:46:56.410Z,18.69
2023-08-01T05:49:27.472Z,18.69
2023-08-01T05:51:57.042Z,18.67
2023-08-01T05:54:29.456Z,18.74
2023-08-01T05:56:58.033Z,18.65
2023-08-01T05:59:26.786Z,18.70
2023-08-01T06:01:58.629Z,18.66
2023-08-01T06:04:27.121Z,18.63
2023-08-01T06:06:55.402Z,18.51
2023-08-01T06:09:28.532Z,18.49
2023-08-01T06:11:58.770Z,18.51
2023-08-01T06:14:27.386Z,18.45
2023-08-01T06:16:55.385Z,18.39
2023-08-01T06:19:23.667Z,18.42
2023-08-01T06:21:52.036Z,18.33
2023-08-01T06:24:20.594Z,18.36
2023-08-01T06:26:51.008Z,18.45
2023-08-01T06:29:21.828Z,18.53
2023-08-01T06:31:50.876Z,18.49
2023-08-01T06:34:23.792Z,18.48
2023-08-01T06:36:52.335Z,18.47
2023-08-01T06:39:21.895Z,18.63
2023-08-01T06:41:51.698Z,18.61
2023-08-01T06:44:24.366Z,18.53
2023-08-01T06:46:53.700Z,18.54
2023-08-01T06:49:22.526Z,18.50
2023-08-01T06:51:55.799Z,18.49
2023-08-01T06:54:26.841Z,18.46
2023-08-01T06:57:00.134Z,18.40
2023-08-01T06:59:36.455Z,18.39
2023-08-01T07:02:09.736Z,18.27
2023-08-01T07:04:38.701Z,18.22
2023-08-01T07:07:09.665Z,18.25
2023-08-01T07:09:40.171Z,18.20
2023-08-01T07:12:09.210Z,18.30
2023-08-01T07:14:39.058Z,18.35
2023-08-01T07:17:08.651Z,18.35
2023-08-01T07:19:37.465Z,18.30
2023-08-01T07:22:06.321Z,18.41
2023-08-01T07:24:35.827Z,18.42
2023-08-01T07:27:07.031Z,18.48
2023-08-01T07:29:35.989Z,18.57
2023-08-01T07:32:08.553Z,18.67
2023-08-01T07:34:37.307Z,18.81
2023-08-01T07:37:06.752Z,18.97
2023-08-01T07:39:36.114Z,19.12
2023-08-01T07:42:07.972Z,19.25
2023-08-01T07:44:36.921Z,19.25
2023-08-01T07:47:06.890Z,19.23
2023-08-01T07:49:39.660Z,19.27
2023-08-01T07:52:11.930Z,19.34
2023-08-01T07:54:41.040Z,19.37
2023-08-01T07:57:11.453Z,19.41
2023-08-01T07:59:45.038Z,19.40
2023-08-01T08:02:16.087Z,19.33
2023-08-01T08:04:46.776Z,19.27
2023-08-01T08:07:15.951Z,19.26
2023-08-01T08:09:46.247Z,19.28
2023-08-01T08:12:20.224Z,19.31
2023-08-01T08:14:51.507Z,19.24
2023-08-01T08:17:23.906Z,19.28
2023-08-01T08:19:53.589Z,19.12
2023-08-01T08:22:22.867Z,19.08
2023-08-01T08:24:55.156Z,19.01
2023-08-01T08:27:23.605Z,19.00
2023-08-01T08:29:55.278Z,19.05
2023-08-01T08:32:25.910Z,19.13
2023-08-01T08:34:54.290Z,19.20
2023-08-01T08:37:22.315Z,19.33
2023-08-01T08:39:51.072Z,19.48
2023-08-01T08:42:21.337Z,19.63
2023-08-01T08:44:57.009Z,19.90
2023-08-01T08:47:28.047Z,20.28
2023-08-01T08:49:58.820Z,20.52
2023-08-01T08:52:28.179Z,20.71
2023-08-01T08:54:59.949Z,20.76
2023-08-01T08:57:31.281Z,20.73
2023-08-01T09:00:02.161Z,20.73
2023-08-01T09:02:36.236Z,20.70
2023-08-01T09:05:06.937Z,20.88
2023-08-01T09:07:43.708Z,21.10
2023-08-01T09:10:14.466Z,21.29
2023-08-01T09:12:42.560Z,21.41
2023-08-01T09:15:12.551Z,21.49
2023-08-01T09:17:51.825Z,21.50
2023-08-01T09:20:23.380Z,21.54
2023-08-01T09:22:52.615Z,21.44
2023-08-01T09:25:22.980Z,21.36
2023-08-01T09:27:52.371Z,21.33
2023-08-01T09:30:22.289Z,21.33
2023-08-01T09:32:57.246Z,21.24
2023-08-01T09:35:26.096Z,21.27
2023-08-01T09:37:54.392Z,21.21
2023-08-01T09:40:23.070Z,21.11
2023-08-01T09:42:51.653Z,21.07
2023-08-01T09:45:22.798Z,21.08
2023-08-01T09:47:53.514Z,21.17
2023-08-01T09:50:28.090Z,21.20
2023-08-01T09:52:56.496Z,21.23
2023-08-01T09:55:29.031Z,21.43
2023-08-01T09:58:00.266Z,21.48
2023-08-01T10:00:30.226Z,21.44
2023-08-01T10:03:02.854Z,21.52
2023-08-01T10:05:35.591Z,21.64
2023-08-01T10:08:06.092Z,21.68
2023-08-01T10:10:37.645Z,21.78
2023-08-01T10:13:06.599Z,21.98
2023-08-01T10:15:40.619Z,22.29
2023-08-01T10:18:10.209Z,22.51
2023-08-01T10:20:42.631Z,22.71
2023-08-01T10:23:12.360Z,22.66
2023-08-01T10:25:42.437Z,22.51
2023-08-01T10:28:11.861Z,22.41
2023-08-01T10:30:41.858Z,22.26
2023-08-01T10:33:13.762Z,22.22
2023-08-01T10:35:45.944Z,22.37
2023-08-01T10:38:15.159Z,22.43
2023-08-01T10:40:45.640Z,22.39
2023-08-01T10:43:23.470Z,22.38
2023-08-01T10:46:04.702Z,22.25
2023-08-01T10:48:33.079Z,22.17
2023-08-01T10:51:03.992Z,22.07
2023-08-01T10:53:43.519Z,22.04
2023-08-01T10:56:22.385Z,21.95
2023-08-01T10:58:51.541Z,21.84
2023-08-01T11:01:22.212Z,21.82
2023-08-01T11:03:51.655Z,21.76
2023-08-01T11:06:23.626Z,21.98
2023-08-01T11:08:55.409Z,22.39
2023-08-01T11:11:27.244Z,22.76
2023-08-01T11:13:58.331Z,23.11
2023-08-01T11:16:30.683Z,23.41
2023-08-01T11:19:01.665Z,23.46
2023-08-01T11:21:36.305Z,23.46
2023-08-01T11:24:09.443Z,23.40
2023-08-01T11:26:37.738Z,23.29
2023-08-01T11:29:06.692Z,23.25
2023-08-01T11:31:36.088Z,23.10
2023-08-01T11:34:13.476Z,22.94
2023-08-01T11:36:47.677Z,22.75
2023-08-01T11:39:20.678Z,22.76
2023-08-01T11:41:52.129Z,22.81
2023-08-01T11:44:25.884Z,22.82
2023-08-01T11:46:56.815Z,22.84
2023-08-01T11:49:27.897Z,22.84
2023-08-01T11:51:58.902Z,22.93
2023-08-01T11:54:27.943Z,22.99
2023-08-01T11:57:04.785Z,22.98
2023-08-01T11:59:34.520Z,23.00
2023-08-01T12:02:02.537Z,23.09
2023-08-01T12:04:32.944Z,23.32
2023-08-01T12:07:14.109Z,23.69
2023-08-01T12:09:42.089Z,24.10
2023-08-01T12:12:11.529Z,24.27
2023-08-01T12:14:43.662Z,24.35
2023-08-01T12:17:13.590Z,24.41
2023-08-01T12:19:41.871Z,24.56
2023-08-01T12:22:15.650Z,24.79
2023-08-01T12:24:47.528Z,25.00
2023-08-01T12:27:19.552Z,25.31
2023-08-01T12:29:48.093Z,25.28
2023-08-01T12:32:20.926Z,25.23
2023-08-01T12:34:48.986Z,25.10
2023-08-01T12:37:22.049Z,25.03
2023-08-01T12:39:54.569Z,25.04
2023-08-01T12:42:23.215Z,25.31
2023-08-01T12:44:51.669Z,25.23
2023-08-01T12:47:22.088Z,24.96
2023-08-01T12:49:51.736Z,24.66
2023-08-01T12:52:26.643Z,24.44
2023-08-01T12:54:54.953Z,24.23
2023-08-01T12:57:23.696Z,24.04
2023-08-01T12:59:55.905Z,24.08
2023-08-01T13:02:25.679Z,24.05
2023-08-01T13:04:55.852Z,24.24
2023-08-01T13:07:25.305Z,24.14
2023-08-01T13:09:53.620Z,24.03
2023-08-01T13:12:21.694Z,23.89
2023-08-01T13:14:52.415Z,23.77
2023-08-01T13:17:23.831Z,23.58
2023-08-01T13:19:54.906Z,23.34
2023-08-01T13:22:25.584Z,23.18
2023-08-01T13:24:54.586Z,23.14
2023-08-01T13:27:22.741Z,23.05
2023-08-01T13:29:55.457Z,23.30
2023-08-01T13:32:24.729Z,23.71
2023-08-01T13:34:52.808Z,24.07
2023-08-01T13:37:21.046Z,24.25
2023-08-01T13:39:51.779Z,24.49
2023-08-01T13:42:20.297Z,24.75
2023-08-01T13:44:58.222Z,24.72
2023-08-01T13:47:28.251Z,24.73
2023-08-01T13:49:59.544Z,24.80
2023-08-01T13:52:27.983Z,24.93
2023-08-01T13:55:04.103Z,25.39
2023-08-01T13:57:32.768Z,26.06
2023-08-01T14:00:12.387Z,26.35
2023-08-01T14:02:45.248Z,26.53
2023-08-01T14:05:15.583Z,26.15
2023-08-01T14:07:46.628Z,25.76
2023-08-01T14:10:17.477Z,25.09
2023-08-01T14:12:47.524Z,24.73
2023-08-01T14:15:18.671Z,24.52
2023-08-01T14:17:47.112Z,23.93
2023-08-01T14:20:18.664Z,23.21
2023-08-01T14:22:49.791Z,22.90
2023-08-01T14:25:23.481Z,22.85
2023-08-01T14:27:54.784Z,22.85
2023-08-01T14:30:24.980Z,23.20
2023-08-01T14:32:53.916Z,23.57
2023-08-01T14:35:24.804Z,24.01
2023-08-01T14:37:54.512Z,24.45
2023-08-01T14:40:28.805Z,24.98
2023-08-01T14:43:01.552Z,25.45
2023-08-01T14:45:31.569Z,25.75
2023-08-01T14:48:05.082Z,25.86
2023-08-01T14:50:37.624Z,25.93
2023-08-01T14:53:07.592Z,25.89
2023-08-01T14:55:38.011Z,26.04
2023-08-01T14:58:08.015Z,26.26
2023-08-01T15:00:37.972Z,26.88
2023-08-01T15:03:11.475Z,27.34
2023-08-01T15:05:42.495Z,27.79
2023-08-01T15:08:12.580Z,28.60
2023-08-01T15:10:46.202Z,28.47
2023-08-01T15:13:15.810Z,27.88
2023-08-01T15:15:44.546Z,27.33
2023-08-01T15:18:14.288Z,26.56
2023-08-01T15:20:43.300Z,26.41
2023-08-01T15:23:16.360Z,26.97
2023-08-01T15:25:57.417Z,27.19
2023-08-01T15:28:29.368Z,27.14
2023-08-01T15:31:07.878Z,27.21
2023-08-01T15:33:39.753Z,27.23
2023-08-01T15:36:09.817Z,29.25
2023-08-01T15:38:40.326Z,31.72
2023-08-01T15:41:13.619Z,32.63
2023-08-01T15:43:42.775Z,33.87
2023-08-01T15:46:14.040Z,34.77
2023-08-01T15:48:43.112Z,34.93
2023-08-01T15:51:12.197Z,36.44
2023-08-01T15:53:41.996Z,37.09
2023-08-01T15:56:15.565Z,34.96
2023-08-01T15:58:43.731Z,33.04
2023-08-01T16:01:12.557Z,31.58
2023-08-01T16:03:45.342Z,30.26
2023-08-01T16:06:15.445Z,29.15
2023-08-01T16:08:44.136Z,29.03
2023-08-01T16:11:15.870Z,29.19
2023-08-01T16:13:46.712Z,28.90
2023-08-01T16:16:14.818Z,28.30
2023-08-01T16:18:44.365Z,27.69
2023-08-01T16:21:12.694Z,28.12
2023-08-01T16:23:43.405Z,30.50
2023-08-01T16:26:11.867Z,31.27
2023-08-01T16:28:41.664Z,31.45
2023-08-01T16:31:13.354Z,32.37
2023-08-01T16:33:44.357Z,35.30
2023-08-01T16:36:12.986Z,35.39
2023-08-01T16:38:42.659Z,33.90
2023-08-01T16:41:22.199Z,33.75
2023-08-01T16:43:55.271Z,32.09
2023-08-01T16:46:24.015Z,30.65
2023-08-01T16:48:52.313Z,29.64
2023-08-01T16:51:25.773Z,30.39
2023-08-01T16:53:57.618Z,30.27
2023-08-01T16:56:26.022Z,29.76
2023-08-01T16:58:57.279Z,29.05
2023-08-01T17:01:27.123Z,27.96
2023-08-01T17:03:55.592Z,26.74
2023-08-01T17:06:25.995Z,26.07
2023-08-01T17:09:31.893Z,25.65
2023-08-01T17:11:59.892Z,25.30
2023-08-01T17:14:30.502Z,25.06
2023-08-01T17:16:58.634Z,24.93
2023-08-01T17:19:26.686Z,24.87
2023-08-01T17:21:54.898Z,24.57
2023-08-01T17:24:25.058Z,24.46
2023-08-01T17:26:56.002Z,24.43
2023-08-01T17:29:23.924Z,24.23
2023-08-01T17:31:51.862Z,24.14
2023-08-01T17:34:19.765Z,24.27
2023-08-01T17:36:47.824Z,24.22
2023-08-01T17:39:18.482Z,24.23
2023-08-01T17:41:46.740Z,24.59
2023-08-01T17:44:18.649Z,24.83
2023-08-01T17:46:47.089Z,24.87
2023-08-01T17:49:15.065Z,24.65
2023-08-01T17:51:43.102Z,24.49
2023-08-01T17:54:12.691Z,24.33
2023-08-01T17:56:45.672Z,23.86
2023-08-01T17:59:14.306Z,23.46
2023-08-01T18:01:44.386Z,22.98
2023-08-01T18:04:12.373Z,22.75
2023-08-01T18:06:40.668Z,22.77
2023-08-01T18:09:09.108Z,22.64
2023-08-01T18:11:37.332Z,22.52
2023-08-01T18:14:07.822Z,22.36
2023-08-01T18:16:35.790Z,22.28
2023-08-01T18:19:05.429Z,22.24
2023-08-01T18:21:34.717Z,22.18
2023-08-01T18:24:02.840Z,22.17
2023-08-01T18:26:30.845Z,22.10
2023-08-01T18:28:58.794Z,21.96
2023-08-01T18:31:26.791Z,21.76
2023-08-01T18:33:56.871Z,21.64
2023-08-01T18:36:26.618Z,21.63
2023-08-01T18:38:54.630Z,21.56
2023-08-01T18:41:22.840Z,21.46
2023-08-01T18:43:53.996Z,21.46
2023-08-01T18:46:23.377Z,21.45
2023-08-01T18:48:52.598Z,21.19
2023-08-01T18:51:22.370Z,21.12
2023-08-01T18:53:52.127Z,21.09
2023-08-01T18:56:23.699Z,21.03
2023-08-01T18:58:52.002Z,21.02
2023-08-01T19:01:22.997Z,20.86
2023-08-01T19:03:53.150Z,20.73
2023-08-01T19:06:22.381Z,20.74
2023-08-01T19:08:59.241Z,20.57
2023-08-01T19:11:37.942Z,20.66
2023-08-01T19:14:06.012Z,20.73
2023-08-01T19:16:33.986Z,20.59
2023-08-01T19:19:02.199Z,20.28
2023-08-01T19:21:31.519Z,20.29
2023-08-01T19:24:01.158Z,20.38
2023-08-01T19:26:29.159Z,20.13
2023-08-01T19:28:57.395Z,20.02
2023-08-01T19:31:25.611Z,19.92
2023-08-01T19:33:53.864Z,19.87
2023-08-01T19:36:24.430Z,20.16
2023-08-01T19:38:52.560Z,19.94
2023-08-01T19:41:21.822Z,19.78
2023-08-01T19:43:51.989Z,19.75
2023-08-01T19:46:20.393Z,19.84
2023-08-01T19:48:51.830Z,19.68
2023-08-01T19:51:19.883Z,19.69
2023-08-01T19:53:50.266Z,19.65
2023-08-01T19:56:18.604Z,19.62
2023-08-01T19:58:47.889Z,19.66
2023-08-01T20:01:16.325Z,19.62
2023-08-01T20:03:44.990Z,19.59
2023-08-01T20:06:15.328Z,19.65
2023-08-01T20:08:43.993Z,19.48
2023-08-01T20:11:12.078Z,19.44
2023-08-01T20:13:39.993Z,19.52
2023-08-01T20:16:09.315Z,19.42
2023-08-01T20:18:37.235Z,19.40
2023-08-01T20:21:07.900Z,19.19
2023-08-01T20:23:39.170Z,19.16
2023-08-01T20:26:07.698Z,19.12
2023-08-01T20:28:35.912Z,19.01
2023-08-01T20:31:06.410Z,18.97
2023-08-01T20:33:36.770Z,19.14
2023-08-01T20:36:07.315Z,19.22
2023-08-01T20:38:35.678Z,19.09
2023-08-01T20:41:12.017Z,19.08
2023-08-01T20:43:40.051Z,18.95
2023-08-01T20:46:10.790Z,19.01
2023-08-01T20:48:40.090Z,18.97
2023-08-01T20:51:07.975Z,19.11
2023-08-01T20:53:36.771Z,18.92
2023-08-01T20:56:04.949Z,19.02
2023-08-01T20:58:33.188Z,18.89
2023-08-01T21:01:03.733Z,18.87
2023-08-01T21:03:33.921Z,18.78
2023-08-01T21:06:05.397Z,18.96
2023-08-01T21:08:33.429Z,18.93
2023-08-01T21:11:01.351Z,18.87
2023-08-01T21:13:29.356Z,18.99
2023-08-01T21:15:57.326Z,19.04
2023-08-01T21:18:26.384Z,19.04
2023-08-01T21:20:55.213Z,18.84
2023-08-01T21:23:24.933Z,18.93
2023-08-01T21:25:53.213Z,18.76
2023-08-01T21:28:23.724Z,18.74
2023-08-01T21:30:51.630Z,18.77
2023-08-01T21:33:22.281Z,18.69
2023-08-01T21:35:50.206Z,18.65
2023-08-01T21:38:18.215Z,18.68
2023-08-01T21:40:47.606Z,18.70
2023-08-01T21:43:17.649Z,18.70
2023-08-01T21:45:45.779Z,18.73
2023-08-01T21:48:14.301Z,18.76
2023-08-01T21:50:42.167Z,18.79
2023-08-01T21:53:10.055Z,18.78
2023-08-01T21:55:40.096Z,18.83
2023-08-01T21:58:09.787Z,18.71
2023-08-01T22:00:37.921Z,18.68
2023-08-01T22:03:05.882Z,18.61
2023-08-01T22:05:34.138Z,18.60
2023-08-01T22:08:05.008Z,18.61
2023-08-01T22:10:33.576Z,18.58
2023-08-01T22:13:02.482Z,18.56
2023-08-01T22:15:31.962Z,18.52
2023-08-01T22:17:59.957Z,18.44
2023-08-01T22:20:28.244Z,18.43
2023-08-01T22:22:59.008Z,18.34
2023-08-01T22:25:26.966Z,18.32
2023-08-01T22:27:54.832Z,18.29
2023-08-01T22:30:23.113Z,18.22
2023-08-01T22:32:52.375Z,18.21
2023-08-01T22:35:20.463Z,18.25
2023-08-01T22:37:51.434Z,18.28
2023-08-01T22:40:19.437Z,18.27
2023-08-01T22:42:47.437Z,18.30
2023-08-01T22:45:15.879Z,18.30
2023-08-01T22:47:43.894Z,18.31
2023-08-01T22:50:17.965Z,18.27
2023-08-01T22:52:45.909Z,18.24
2023-08-01T22:55:14.882Z,18.16
2023-08-01T22:57:42.788Z,18.09
2023-08-01T23:00:13.490Z,18.16
2023-08-01T23:02:45.064Z,18.19
2023-08-01T23:05:16.232Z,18.16
2023-08-01T23:07:44.550Z,18.12
2023-08-01T23:10:12.445Z,18.02
2023-08-01T23:12:41.335Z,18.11
2023-08-01T23:15:11.713Z,18.09
2023-08-01T23:17:42.118Z,18.03
2023-08-01T23:20:11.116Z,18.03
2023-08-01T23:22:40.412Z,18.02
2023-08-01T23:25:09.010Z,18.02
2023-08-01T23:27:37.015Z,18.05
2023-08-01T23:30:05.942Z,18.09
2023-08-01T23:32:33.894Z,18.10
2023-08-01T23:35:04.632Z,18.09
2023-08-01T23:37:34.887Z,18.14
2023-08-01T23:40:04.888Z,18.16
2023-08-01T23:42:33.288Z,18.11
2023-08-01T23:45:01.265Z,18.15
2023-08-01T23:47:29.481Z,18.20
2023-08-01T23:49:57.552Z,18.21
2023-08-01T23:52:25.588Z,18.20
2023-08-01T23:54:53.835Z,18.20
2023-08-01T23:57:23.365Z,18.15
2023-08-01T23:59:51.337Z,18.13
